Time;durP1;ratioP1;P1;durP2;ratioP2;P2;SDS_P1;SDS_P2;PMS_P1;PMS_P2;Temp;Humidity;BMP_temperature;BMP_pressure;BME280_temperature;BME280_humidity;BME280_pressure;Samples;Min_cycle;Max_cycle;Signal;HPM_P1;HPM_P2
2023/08/30 00:00:01;;;;;;;5.82;3.67;;;;;;;;;;5034009;28;21351;-58
2023/08/30 00:02:27;;;;;;;5.57;3.67;;;;;;;;;;5032778;28;20403;-58
2023/08/30 00:04:52;;;;;;;6.13;3.40;;;;;;;;;;5030420;28;20445;-58
2023/08/30 00:07:17;;;;;;;6.37;3.63;;;;;;;;;;5019307;28;20457;-58
2023/08/30 00:09:43;;;;;;;5.80;3.80;;;;;;;;;;5023975;28;20402;-58
2023/08/30 00:12:08;;;;;;;6.43;4.10;;;;;;;;;;5023362;28;20407;-58
2023/08/30 00:14:34;;;;;;;6.43;3.80;;;;;;;;;;5019132;28;20408;-58
2023/08/30 00:17:00;;;;;;;7.72;3.88;;;;;;;;;;5024281;28;20443;-58
2023/08/30 00:19:25;;;;;;;7.55;3.80;;;;;;;;;;5023090;28;20896;-58
2023/08/30 00:21:51;;;;;;;6.33;3.93;;;;;;;;;;5020929;28;20495;-58
2023/08/30 00:24:16;;;;;;;5.83;3.87;;;;;;;;;;5021714;28;20419;-58
2023/08/30 00:26:41;;;;;;;5.90;4.00;;;;;;;;;;5029036;28;20441;-58
2023/08/30 00:29:07;;;;;;;6.00;4.17;;;;;;;;;;5030523;28;20771;-58
2023/08/30 00:31:32;;;;;;;7.38;4.35;;;;;;;;;;5022304;28;20470;-58
2023/08/30 00:33:57;;;;;;;6.45;4.28;;;;;;;;;;5034757;28;20413;-58
2023/08/30 00:36:22;;;;;;;7.33;4.60;;;;;;;;;;5031990;28;20399;-58
2023/08/30 00:38:49;;;;;;;7.70;4.70;;;;;;;;;;5026731;28;20490;-57
2023/08/30 00:41:14;;;;;;;7.22;4.55;;;;;;;;;;5039280;28;20413;-58
2023/08/30 00:43:39;;;;;;;6.77;4.43;;;;;;;;;;5027892;28;21199;-58
2023/08/30 00:46:05;;;;;;;8.00;4.50;;;;;;;;;;5027622;28;20478;-58
2023/08/30 00:48:30;;;;;;;7.57;4.67;;;;;;;;;;5021378;28;20411;-58
2023/08/30 00:50:55;;;;;;;6.93;4.73;;;;;;;;;;5023988;28;20417;-58
2023/08/30 00:53:21;;;;;;;8.40;4.63;;;;;;;;;;5021401;28;20853;-58
2023/08/30 00:55:46;;;;;;;8.13;4.83;;;;;;;;;;5019590;28;20468;-58
2023/08/30 00:58:11;;;;;;;8.13;5.18;;;;;;;;;;5019978;28;20407;-58
2023/08/30 01:00:37;;;;;;;7.38;4.50;;;;;;;;;;4997330;28;20470;-58
2023/08/30 01:03:02;;;;;;;7.93;4.90;;;;;;;;;;4990660;28;20486;-58
2023/08/30 01:05:28;;;;;;;8.47;4.83;;;;;;;;;;4991969;28;20407;-58
2023/08/30 01:07:53;;;;;;;7.73;4.63;;;;;;;;;;4987327;28;20834;-58
2023/08/30 01:10:18;;;;;;;7.35;4.90;;;;;;;;;;4986819;28;20901;-58
2023/08/30 01:12:45;;;;;;;6.50;4.57;;;;;;;;;;4993938;28;20895;-58
2023/08/30 01:15:13;;;;;;;7.60;4.30;;;;;;;;;;4985530;28;20406;-58
2023/08/30 01:17:39;;;;;;;7.38;4.75;;;;;;;;;;4987068;28;20995;-58
2023/08/30 01:20:14;;;;;;;8.27;4.50;;;;;;;;;;4996163;28;20523;-58
2023/08/30 01:22:45;;;;;;;7.35;4.28;;;;;;;;;;4999961;28;20413;-58
2023/08/30 01:25:20;;;;;;;7.05;4.32;;;;;;;;;;5001863;28;20403;-58
2023/08/30 01:27:46;;;;;;;7.70;5.33;;;;;;;;;;5009394;28;20483;-58
2023/08/30 01:30:11;;;;;;;7.03;4.72;;;;;;;;;;5013282;28;20422;-58
2023/08/30 01:32:37;;;;;;;7.57;4.60;;;;;;;;;;5009055;28;20501;-58
2023/08/30 01:35:02;;;;;;;7.93;5.20;;;;;;;;;;5007767;28;20444;-58
2023/08/30 01:37:28;;;;;;;7.23;4.70;;;;;;;;;;5008932;28;20412;-58
2023/08/30 01:39:54;;;;;;;6.95;5.03;;;;;;;;;;5007410;28;20412;-58
2023/08/30 01:42:22;;;;;;;7.82;5.20;;;;;;;;;;4997688;28;20419;-58
2023/08/30 01:44:47;;;;;;;6.70;5.03;;;;;;;;;;5004535;28;21131;-58
2023/08/30 01:47:12;;;;;;;7.30;5.10;;;;;;;;;;5004682;28;20690;-58
2023/08/30 01:49:39;;;;;;;7.90;4.90;;;;;;;;;;5006501;28;20415;-58
2023/08/30 01:52:04;;;;;;;6.93;4.65;;;;;;;;;;5007065;28;20451;-59
2023/08/30 01:54:30;;;;;;;8.17;5.07;;;;;;;;;;5013196;28;20811;-58
2023/08/30 01:56:55;;;;;;;7.83;5.10;;;;;;;;;;5004883;28;20417;-58
2023/08/30 01:59:20;;;;;;;7.77;5.10;;;;;;;;;;5007649;28;20788;-58
2023/08/30 02:01:46;;;;;;;7.67;5.47;;;;;;;;;;5011055;28;20412;-58
2023/08/30 02:04:11;;;;;;;7.63;5.10;;;;;;;;;;5000079;28;20413;-58
2023/08/30 02:06:41;;;;;;;8.35;5.20;;;;;;;;;;4998849;28;20512;-58
2023/08/30 02:09:09;;;;;;;8.57;5.40;;;;;;;;;;4998672;28;20423;-58
2023/08/30 02:11:35;;;;;;;8.93;5.90;;;;;;;;;;5011296;28;20414;-58
2023/08/30 02:14:00;;;;;;;7.10;5.57;;;;;;;;;;5008365;28;20393;-58
2023/08/30 02:16:26;;;;;;;8.10;5.40;;;;;;;;;;4994338;28;20994;-58
2023/08/30 02:18:51;;;;;;;8.30;5.70;;;;;;;;;;4990792;28;20963;-58
2023/08/30 02:21:16;;;;;;;9.23;5.53;;;;;;;;;;4994351;28;20422;-58
2023/08/30 02:23:42;;;;;;;7.17;5.47;;;;;;;;;;4990446;28;20406;-58
2023/08/30 02:26:07;;;;;;;8.00;5.60;;;;;;;;;;4988234;28;20418;-58
2023/08/30 02:28:32;;;;;;;8.83;5.97;;;;;;;;;;4985968;28;20429;-58
2023/08/30 02:30:58;;;;;;;8.73;5.17;;;;;;;;;;5000208;28;21049;-58
2023/08/30 02:33:23;;;;;;;7.47;5.13;;;;;;;;;;4999420;28;20396;-58
2023/08/30 02:35:48;;;;;;;8.73;5.80;;;;;;;;;;5001488;28;21449;-58
2023/08/30 02:38:13;;;;;;;7.57;5.60;;;;;;;;;;4989125;28;20481;-58
2023/08/30 02:40:39;;;;;;;7.30;5.23;;;;;;;;;;4990485;28;20411;-58
2023/08/30 02:43:04;;;;;;;7.57;5.18;;;;;;;;;;4993750;28;20413;-59
2023/08/30 02:45:29;;;;;;;8.83;5.47;;;;;;;;;;4991145;28;20869;-58
2023/08/30 02:47:55;;;;;;;8.17;5.00;;;;;;;;;;4989490;28;20411;-58
2023/08/30 02:50:21;;;;;;;6.72;5.20;;;;;;;;;;4985178;28;20410;-58
2023/08/30 02:52:46;;;;;;;8.83;5.40;;;;;;;;;;4984223;28;20488;-58
2023/08/30 02:55:11;;;;;;;7.97;5.10;;;;;;;;;;4983423;28;20407;-58
2023/08/30 02:57:37;;;;;;;6.67;4.77;;;;;;;;;;4990829;28;20398;-58
2023/08/30 03:00:05;;;;;;;7.53;5.33;;;;;;;;;;5002274;28;20488;-59
2023/08/30 03:02:31;;;;;;;9.03;5.50;;;;;;;;;;5017199;28;20395;-58
2023/08/30 03:04:56;;;;;;;8.35;5.20;;;;;;;;;;5030939;28;20401;-58
2023/08/30 03:07:21;;;;;;;8.97;5.40;;;;;;;;;;5031993;28;20447;-58
2023/08/30 03:09:51;;;;;;;6.90;5.37;;;;;;;;;;5031681;28;20529;-58
2023/08/30 03:12:16;;;;;;;8.80;6.50;;;;;;;;;;5035549;28;20403;-58
2023/08/30 03:14:42;;;;;;;8.80;6.10;;;;;;;;;;5034869;28;20768;-58
2023/08/30 03:17:07;;;;;;;9.57;6.10;;;;;;;;;;5032423;28;20487;-59
2023/08/30 03:19:32;;;;;;;7.83;5.10;;;;;;;;;;5033583;28;20403;-58
2023/08/30 03:22:00;;;;;;;7.53;5.00;;;;;;;;;;5033195;28;20486;-58
2023/08/30 03:24:25;;;;;;;7.00;5.13;;;;;;;;;;5019801;28;20406;-58
2023/08/30 03:26:50;;;;;;;8.53;5.03;;;;;;;;;;5031639;28;20427;-58
2023/08/30 03:29:15;;;;;;;6.73;4.80;;;;;;;;;;5035881;28;20892;-58
2023/08/30 03:31:43;;;;;;;6.40;4.40;;;;;;;;;;5034019;28;20405;-58
2023/08/30 03:34:08;;;;;;;8.30;5.20;;;;;;;;;;5032278;28;20426;-59
2023/08/30 03:36:33;;;;;;;7.67;5.27;;;;;;;;;;5032632;28;20457;-58
2023/08/30 03:38:58;;;;;;;7.97;5.60;;;;;;;;;;5032747;28;20399;-58
2023/08/30 03:41:24;;;;;;;8.40;5.60;;;;;;;;;;5031855;28;20403;-58
2023/08/30 03:43:49;;;;;;;7.70;5.25;;;;;;;;;;5035723;28;20409;-58
2023/08/30 03:46:14;;;;;;;8.00;5.60;;;;;;;;;;5036109;28;20480;-58
2023/08/30 03:48:40;;;;;;;8.30;5.57;;;;;;;;;;5034513;28;20414;-58
2023/08/30 03:51:05;;;;;;;7.27;5.70;;;;;;;;;;5032371;28;20446;-58
2023/08/30 03:53:30;;;;;;;8.53;5.93;;;;;;;;;;5036821;28;20404;-58
2023/08/30 03:55:55;;;;;;;9.13;6.03;;;;;;;;;;5033545;28;20409;-58
2023/08/30 03:58:21;;;;;;;7.80;5.43;;;;;;;;;;5018322;28;20762;-58
2023/08/30 04:00:46;;;;;;;7.80;5.40;;;;;;;;;;5039150;28;20427;-58
2023/08/30 04:03:12;;;;;;;8.33;5.57;;;;;;;;;;5041588;28;20425;-59
2023/08/30 04:05:38;;;;;;;7.60;5.10;;;;;;;;;;5038417;28;20523;-58
2023/08/30 04:08:03;;;;;;;7.73;5.80;;;;;;;;;;5039570;28;20469;-58
2023/08/30 04:10:29;;;;;;;8.70;6.30;;;;;;;;;;5039610;28;20484;-58
2023/08/30 04:12:54;;;;;;;9.50;6.13;;;;;;;;;;5040695;28;21036;-58
2023/08/30 04:15:19;;;;;;;8.40;6.20;;;;;;;;;;5038044;28;20391;-58
2023/08/30 04:17:44;;;;;;;8.77;6.60;;;;;;;;;;5037457;28;20410;-58
2023/08/30 04:20:10;;;;;;;10.90;7.17;;;;;;;;;;5030781;28;20407;-59
2023/08/30 04:22:36;;;;;;;10.73;8.30;;;;;;;;;;5032535;28;20922;-58
2023/08/30 04:25:01;;;;;;;12.20;7.70;;;;;;;;;;5033854;28;20446;-59
2023/08/30 04:27:26;;;;;;;9.33;7.20;;;;;;;;;;5032479;28;20405;-58
2023/08/30 04:29:52;;;;;;;10.90;8.80;;;;;;;;;;5026288;28;20913;-58
2023/08/30 04:32:17;;;;;;;10.80;8.25;;;;;;;;;;5033673;28;20408;-58
2023/08/30 04:34:43;;;;;;;11.20;8.60;;;;;;;;;;5035643;28;20447;-58
2023/08/30 04:37:08;;;;;;;11.33;8.50;;;;;;;;;;5030404;28;20405;-58
2023/08/30 04:39:33;;;;;;;10.20;8.00;;;;;;;;;;5029992;28;20492;-58
2023/08/30 04:41:59;;;;;;;10.23;8.07;;;;;;;;;;5023822;28;20401;-58
2023/08/30 04:44:24;;;;;;;10.82;8.80;;;;;;;;;;5021043;28;20886;-58
2023/08/30 04:46:51;;;;;;;11.97;8.73;;;;;;;;;;5006126;28;20433;-58
2023/08/30 04:49:17;;;;;;;10.23;8.15;;;;;;;;;;4988433;28;20422;-58
2023/08/30 04:51:42;;;;;;;18.47;8.57;;;;;;;;;;4988642;28;20414;-58
2023/08/30 04:54:08;;;;;;;16.30;8.43;;;;;;;;;;4991475;28;20417;-58
2023/08/30 04:56:33;;;;;;;12.13;8.20;;;;;;;;;;4982000;28;20507;-58
2023/08/30 04:58:58;;;;;;;12.50;9.00;;;;;;;;;;4981056;28;20406;-58
2023/08/30 05:01:23;;;;;;;11.30;8.32;;;;;;;;;;4981799;28;20467;-58
2023/08/30 05:03:49;;;;;;;11.00;8.57;;;;;;;;;;4995204;28;20933;-58
2023/08/30 05:06:16;;;;;;;11.03;8.67;;;;;;;;;;4987106;28;20738;-59
2023/08/30 05:08:41;;;;;;;10.90;8.67;;;;;;;;;;4989384;28;20774;-59
2023/08/30 05:11:06;;;;;;;11.77;8.50;;;;;;;;;;4981090;28;20405;-58
2023/08/30 05:13:32;;;;;;;10.87;8.40;;;;;;;;;;4993254;28;21339;-58
2023/08/30 05:15:57;;;;;;;11.93;8.47;;;;;;;;;;4994842;28;20418;-58
2023/08/30 05:18:23;;;;;;;12.00;8.80;;;;;;;;;;4989003;28;20436;-58
2023/08/30 05:20:48;;;;;;;12.33;8.77;;;;;;;;;;4995985;28;20957;-58
2023/08/30 05:23:13;;;;;;;11.57;8.47;;;;;;;;;;4988817;28;20890;-57
2023/08/30 05:25:38;;;;;;;12.48;9.15;;;;;;;;;;4984445;28;20485;-58
2023/08/30 05:28:04;;;;;;;10.07;8.07;;;;;;;;;;4990408;28;20487;-58
2023/08/30 05:30:29;;;;;;;10.00;8.17;;;;;;;;;;4988879;28;20405;-58
2023/08/30 05:32:54;;;;;;;11.47;8.00;;;;;;;;;;4988905;28;20406;-58
2023/08/30 05:35:20;;;;;;;10.97;8.20;;;;;;;;;;4991530;28;20477;-58
2023/08/30 05:37:45;;;;;;;10.20;8.27;;;;;;;;;;4988930;28;20422;-58
2023/08/30 05:40:15;;;;;;;9.97;7.70;;;;;;;;;;4986384;28;21142;-58
2023/08/30 05:42:40;;;;;;;11.17;8.10;;;;;;;;;;4979829;28;20937;-58
2023/08/30 05:45:05;;;;;;;9.98;7.70;;;;;;;;;;4983270;28;20411;-58
2023/08/30 05:47:31;;;;;;;10.75;7.78;;;;;;;;;;4983183;28;20420;-58
2023/08/30 05:49:57;;;;;;;9.25;7.50;;;;;;;;;;4987921;28;20410;-58
2023/08/30 05:52:22;;;;;;;9.87;7.17;;;;;;;;;;4992632;28;20402;-58
2023/08/30 05:54:47;;;;;;;11.87;8.00;;;;;;;;;;4990818;28;20437;-58
2023/08/30 05:57:13;;;;;;;10.90;7.60;;;;;;;;;;4988282;28;20462;-58
2023/08/30 05:59:38;;;;;;;10.07;7.80;;;;;;;;;;4993617;28;20496;-58
2023/08/30 06:02:04;;;;;;;11.17;7.97;;;;;;;;;;4996060;28;20427;-58
2023/08/30 06:04:29;;;;;;;10.80;7.70;;;;;;;;;;4984015;28;20414;-58
2023/08/30 06:06:54;;;;;;;11.23;7.80;;;;;;;;;;4983670;28;20916;-58
2023/08/30 06:09:20;;;;;;;10.20;8.03;;;;;;;;;;4988858;28;21008;-59
2023/08/30 06:11:45;;;;;;;11.63;8.60;;;;;;;;;;4991020;28;20492;-59
2023/08/30 06:14:10;;;;;;;12.00;9.00;;;;;;;;;;4995947;28;20514;-59
2023/08/30 06:16:36;;;;;;;11.97;9.30;;;;;;;;;;5010579;28;21017;-58
2023/08/30 06:19:01;;;;;;;12.40;9.10;;;;;;;;;;5009927;28;20833;-59
2023/08/30 06:21:26;;;;;;;11.77;8.90;;;;;;;;;;5008073;28;20406;-58
2023/08/30 06:23:52;;;;;;;12.17;9.40;;;;;;;;;;5009204;28;20923;-58
2023/08/30 06:26:17;;;;;;;12.80;10.13;;;;;;;;;;5000067;28;20413;-58
2023/08/30 06:28:43;;;;;;;12.32;9.82;;;;;;;;;;5002561;28;20425;-58
2023/08/30 06:31:08;;;;;;;12.37;9.40;;;;;;;;;;4984691;28;20406;-58
2023/08/30 06:33:34;;;;;;;11.77;9.50;;;;;;;;;;4994321;28;20469;-58
2023/08/30 06:35:59;;;;;;;12.10;10.07;;;;;;;;;;4992629;28;20929;-58
2023/08/30 06:38:24;;;;;;;11.80;10.27;;;;;;;;;;4990419;28;20410;-58
2023/08/30 06:40:50;;;;;;;11.37;10.07;;;;;;;;;;4993137;28;20421;-59
2023/08/30 06:43:15;;;;;;;13.97;10.47;;;;;;;;;;4992145;28;20465;-59
2023/08/30 06:45:41;;;;;;;11.40;10.20;;;;;;;;;;4991279;28;20414;-59
2023/08/30 06:48:07;;;;;;;13.43;10.57;;;;;;;;;;4989396;28;20427;-59
2023/08/30 06:50:33;;;;;;;13.52;10.60;;;;;;;;;;4990421;28;20460;-59
2023/08/30 06:52:58;;;;;;;12.40;10.07;;;;;;;;;;4981199;28;20427;-58
2023/08/30 06:55:23;;;;;;;12.60;10.33;;;;;;;;;;4985360;28;20410;-58
2023/08/30 06:57:50;;;;;;;12.70;10.33;;;;;;;;;;4994291;28;20557;-58
2023/08/30 07:00:15;;;;;;;12.75;10.98;;;;;;;;;;4999083;28;20449;-58
2023/08/30 07:02:44;;;;;;;16.07;10.27;;;;;;;;;;5016578;28;20419;-58
2023/08/30 07:05:10;;;;;;;13.55;10.70;;;;;;;;;;5023303;28;20407;-58
2023/08/30 07:07:35;;;;;;;14.90;10.67;;;;;;;;;;5021939;28;20802;-58
2023/08/30 07:10:00;;;;;;;14.73;10.20;;;;;;;;;;5024245;28;20491;-60
2023/08/30 07:12:25;;;;;;;15.60;10.80;;;;;;;;;;5025809;28;20391;-58
2023/08/30 07:14:51;;;;;;;14.20;10.25;;;;;;;;;;5024568;28;20909;-58
2023/08/30 07:17:16;;;;;;;15.23;10.43;;;;;;;;;;5036918;28;20444;-58
2023/08/30 07:19:41;;;;;;;12.07;10.53;;;;;;;;;;5036350;28;20488;-58
2023/08/30 07:22:07;;;;;;;13.33;10.63;;;;;;;;;;5032283;28;20394;-58
2023/08/30 07:24:32;;;;;;;13.40;10.57;;;;;;;;;;5032016;28;20495;-58
2023/08/30 07:26:57;;;;;;;14.33;9.90;;;;;;;;;;5033255;28;20423;-58
2023/08/30 07:29:22;;;;;;;12.97;10.00;;;;;;;;;;5031672;28;20874;-58
2023/08/30 07:31:51;;;;;;;14.63;10.67;;;;;;;;;;5030087;28;20494;-58
2023/08/30 07:34:16;;;;;;;11.30;9.15;;;;;;;;;;5034146;28;20662;-59
2023/08/30 07:36:41;;;;;;;13.93;10.00;;;;;;;;;;5030647;28;20399;-59
2023/08/30 07:39:07;;;;;;;12.43;9.50;;;;;;;;;;5020804;28;20510;-60
2023/08/30 07:41:33;;;;;;;12.83;9.20;;;;;;;;;;5035965;28;20459;-59
2023/08/30 07:43:58;;;;;;;12.75;9.75;;;;;;;;;;5021509;28;20441;-59
2023/08/30 07:46:25;;;;;;;12.20;9.20;;;;;;;;;;5029637;28;20387;-59
2023/08/30 07:48:50;;;;;;;12.82;9.43;;;;;;;;;;5021687;28;20824;-59
2023/08/30 07:51:16;;;;;;;13.93;9.27;;;;;;;;;;5024689;28;20415;-60
2023/08/30 07:53:41;;;;;;;12.17;8.87;;;;;;;;;;5032207;28;20391;-59
2023/08/30 07:56:07;;;;;;;12.77;9.17;;;;;;;;;;5028687;28;20407;-60
2023/08/30 07:58:32;;;;;;;14.30;9.55;;;;;;;;;;5036641;28;20403;-60
2023/08/30 08:00:58;;;;;;;11.23;9.00;;;;;;;;;;5030666;28;20452;-59
2023/08/30 08:03:23;;;;;;;12.87;8.03;;;;;;;;;;5027653;28;20407;-59
2023/08/30 08:05:48;;;;;;;10.47;8.07;;;;;;;;;;5031055;28;20403;-59
2023/08/30 08:08:14;;;;;;;11.53;7.80;;;;;;;;;;5032919;28;20485;-59
2023/08/30 08:10:39;;;;;;;13.13;8.77;;;;;;;;;;5032800;28;20454;-59
2023/08/30 08:13:05;;;;;;;12.17;8.27;;;;;;;;;;5030824;28;20486;-60
2023/08/30 08:15:32;;;;;;;12.23;8.70;;;;;;;;;;5033094;28;20441;-60
2023/08/30 08:17:57;;;;;;;12.00;8.07;;;;;;;;;;5031946;28;20952;-59
2023/08/30 08:20:23;;;;;;;11.20;8.53;;;;;;;;;;5030005;28;20402;-60
2023/08/30 08:22:48;;;;;;;12.83;8.97;;;;;;;;;;5035748;28;20409;-59
2023/08/30 08:25:13;;;;;;;11.50;8.13;;;;;;;;;;5033017;28;20484;-60
2023/08/30 08:27:39;;;;;;;11.03;7.30;;;;;;;;;;5028806;28;20417;-60
2023/08/30 08:30:04;;;;;;;10.70;7.13;;;;;;;;;;5029761;28;20399;-60
2023/08/30 08:32:31;;;;;;;10.35;6.80;;;;;;;;;;5035814;28;20436;-59
2023/08/30 08:34:57;;;;;;;12.40;7.70;;;;;;;;;;5034025;28;20410;-60
2023/08/30 08:37:22;;;;;;;12.60;7.90;;;;;;;;;;5027655;28;20415;-60
2023/08/30 08:39:50;;;;;;;9.53;6.60;;;;;;;;;;5019469;28;20791;-60
2023/08/30 08:42:16;;;;;;;10.07;6.87;;;;;;;;;;5023517;28;20403;-60
2023/08/30 08:44:41;;;;;;;10.48;7.20;;;;;;;;;;5018482;28;20419;-60
2023/08/30 08:47:07;;;;;;;10.37;7.03;;;;;;;;;;5021564;28;20415;-60
2023/08/30 08:49:32;;;;;;;10.47;6.97;;;;;;;;;;5021547;28;20423;-60
2023/08/30 08:51:57;;;;;;;12.10;8.37;;;;;;;;;;5015078;28;20459;-60
2023/08/30 08:54:23;;;;;;;10.80;7.03;;;;;;;;;;5016223;28;20768;-60
2023/08/30 08:56:48;;;;;;;8.83;6.67;;;;;;;;;;5022631;28;20466;-60
2023/08/30 08:59:14;;;;;;;9.67;6.67;;;;;;;;;;5020247;28;20494;-60
2023/08/30 09:01:40;;;;;;;12.70;9.00;;;;;;;;;;5015919;28;20783;-60
2023/08/30 09:04:07;;;;;;;12.05;7.90;;;;;;;;;;5023418;28;20423;-60
2023/08/30 09:06:32;;;;;;;12.32;8.98;;;;;;;;;;5024185;28;20398;-60
2023/08/30 09:08:57;;;;;;;10.57;8.13;;;;;;;;;;5029511;28;20413;-59
2023/08/30 09:11:23;;;;;;;11.23;8.50;;;;;;;;;;5030566;28;20415;-59
2023/08/30 09:13:48;;;;;;;13.30;9.60;;;;;;;;;;5022716;28;21598;-60
2023/08/30 09:16:14;;;;;;;11.47;9.87;;;;;;;;;;5019135;28;20977;-59
2023/08/30 09:18:40;;;;;;;10.97;8.30;;;;;;;;;;5020565;28;20406;-59
2023/08/30 09:21:06;;;;;;;12.63;10.30;;;;;;;;;;5021086;28;20413;-59
2023/08/30 09:23:31;;;;;;;12.18;10.52;;;;;;;;;;5027307;28;20397;-59
2023/08/30 09:25:56;;;;;;;14.53;11.17;;;;;;;;;;5028635;28;20431;-59
2023/08/30 09:28:21;;;;;;;16.07;12.67;;;;;;;;;;5030604;28;20396;-59
2023/08/30 09:30:53;;;;;;;12.87;10.27;;;;;;;;;;5022646;28;20478;-59
2023/08/30 09:33:31;;;;;;;12.65;10.52;;;;;;;;;;5018411;28;20893;-59
2023/08/30 09:35:57;;;;;;;11.88;10.45;;;;;;;;;;5029341;28;20494;-59
2023/08/30 09:38:23;;;;;;;12.95;11.48;;;;;;;;;;5025960;28;21218;-59
2023/08/30 09:40:48;;;;;;;15.17;12.83;;;;;;;;;;5020749;28;20410;-59
2023/08/30 09:43:14;;;;;;;14.33;12.50;;;;;;;;;;5022602;28;20414;-59
2023/08/30 09:45:41;;;;;;;12.45;10.32;;;;;;;;;;5023272;28;20403;-59
2023/08/30 09:48:06;;;;;;;13.00;10.53;;;;;;;;;;5029641;28;20490;-60
2023/08/30 09:50:33;;;;;;;11.07;9.47;;;;;;;;;;5025004;28;20889;-59
2023/08/30 09:52:58;;;;;;;11.18;9.02;;;;;;;;;;5031168;28;20462;-59
2023/08/30 09:55:24;;;;;;;10.53;8.73;;;;;;;;;;5033279;28;20805;-59
2023/08/30 09:57:49;;;;;;;10.43;8.20;;;;;;;;;;5022416;28;20471;-59
2023/08/30 10:00:15;;;;;;;9.18;7.88;;;;;;;;;;5031994;28;20495;-59
2023/08/30 10:02:41;;;;;;;8.37;6.80;;;;;;;;;;5010409;28;20437;-59
2023/08/30 10:05:08;;;;;;;8.77;6.97;;;;;;;;;;5028471;28;20514;-59
2023/08/30 10:07:33;;;;;;;8.67;6.93;;;;;;;;;;5027060;28;20415;-59
2023/08/30 10:09:58;;;;;;;8.87;6.70;;;;;;;;;;5022483;28;20471;-59
2023/08/30 10:12:23;;;;;;;7.38;6.28;;;;;;;;;;5022307;28;20418;-59
2023/08/30 10:14:49;;;;;;;7.20;6.03;;;;;;;;;;5017542;28;20895;-59
2023/08/30 10:17:14;;;;;;;7.23;5.50;;;;;;;;;;5029805;28;20445;-59
2023/08/30 10:19:39;;;;;;;7.60;5.77;;;;;;;;;;5021308;28;20757;-59
2023/08/30 10:22:08;;;;;;;6.90;5.33;;;;;;;;;;5017376;28;20905;-59
2023/08/30 10:24:36;;;;;;;7.30;5.47;;;;;;;;;;5020270;28;20430;-59
2023/08/30 10:27:03;;;;;;;7.73;5.60;;;;;;;;;;5021536;28;20426;-59
2023/08/30 10:29:28;;;;;;;8.27;5.35;;;;;;;;;;5020974;28;20905;-59
2023/08/30 10:31:54;;;;;;;7.27;5.70;;;;;;;;;;5018517;28;20410;-59
2023/08/30 10:34:20;;;;;;;7.23;5.57;;;;;;;;;;5022305;28;20462;-59
2023/08/30 10:36:55;;;;;;;7.82;5.78;;;;;;;;;;5022171;28;20399;-59
2023/08/30 10:39:21;;;;;;;9.35;6.20;;;;;;;;;;5029569;28;20401;-59
2023/08/30 10:41:55;;;;;;;7.88;5.75;;;;;;;;;;5025169;28;20817;-59
2023/08/30 10:44:21;;;;;;;7.75;5.60;;;;;;;;;;5027011;28;20520;-59
2023/08/30 10:46:51;;;;;;;8.27;5.97;;;;;;;;;;5028857;28;20505;-59
2023/08/30 10:49:18;;;;;;;7.18;5.88;;;;;;;;;;5031457;28;20454;-59
2023/08/30 10:51:44;;;;;;;7.40;5.70;;;;;;;;;;5028219;28;20411;-59
2023/08/30 10:54:15;;;;;;;8.13;5.80;;;;;;;;;;5027417;28;20403;-59
2023/08/30 10:56:51;;;;;;;8.13;6.13;;;;;;;;;;5021551;28;20529;-59
2023/08/30 10:59:17;;;;;;;7.70;6.07;;;;;;;;;;5021665;28;20407;-59
2023/08/30 11:01:43;;;;;;;8.80;6.22;;;;;;;;;;5025023;28;20404;-58
2023/08/30 11:04:08;;;;;;;7.17;5.93;;;;;;;;;;5034294;28;20415;-59
2023/08/30 11:06:33;;;;;;;7.30;6.27;;;;;;;;;;5026330;28;20418;-59
2023/08/30 11:08:59;;;;;;;7.43;6.40;;;;;;;;;;5033596;28;20433;-59
2023/08/30 11:11:24;;;;;;;8.83;6.67;;;;;;;;;;5036783;28;20393;-59
2023/08/30 11:13:50;;;;;;;9.00;6.47;;;;;;;;;;5024506;28;20407;-59
2023/08/30 11:16:21;;;;;;;8.77;7.07;;;;;;;;;;5033074;28;20406;-59
2023/08/30 11:18:46;;;;;;;9.40;7.95;;;;;;;;;;5036705;28;20414;-59
2023/08/30 11:21:12;;;;;;;7.77;6.70;;;;;;;;;;5018455;28;20413;-59
2023/08/30 11:23:38;;;;;;;9.10;6.40;;;;;;;;;;5016518;28;20808;-59
2023/08/30 11:26:04;;;;;;;7.57;6.50;;;;;;;;;;5023162;28;20953;-59
2023/08/30 11:28:29;;;;;;;8.38;6.72;;;;;;;;;;5022969;28;20448;-59
2023/08/30 11:30:54;;;;;;;8.97;7.37;;;;;;;;;;5028140;28;20909;-59
2023/08/30 11:33:20;;;;;;;8.27;7.20;;;;;;;;;;5034581;28;20408;-59
2023/08/30 11:35:46;;;;;;;8.27;7.35;;;;;;;;;;5037034;28;20445;-59
2023/08/30 11:38:11;;;;;;;8.83;7.60;;;;;;;;;;5032286;28;20432;-59
2023/08/30 11:40:36;;;;;;;8.00;7.20;;;;;;;;;;5029983;28;20413;-59
2023/08/30 11:43:02;;;;;;;10.23;7.13;;;;;;;;;;5030772;28;20404;-59
2023/08/30 11:45:28;;;;;;;8.43;7.53;;;;;;;;;;5032024;28;20389;-59
2023/08/30 11:47:53;;;;;;;9.97;7.53;;;;;;;;;;5022612;28;20407;-59
2023/08/30 11:50:20;;;;;;;8.23;7.30;;;;;;;;;;5020027;28;20780;-59
2023/08/30 11:52:45;;;;;;;7.85;7.05;;;;;;;;;;5023644;28;20493;-59
2023/08/30 11:55:12;;;;;;;7.22;6.40;;;;;;;;;;5015889;28;21028;-59
2023/08/30 11:57:37;;;;;;;9.05;6.88;;;;;;;;;;5021806;28;20397;-59
2023/08/30 12:00:10;;;;;;;7.80;5.63;;;;;;;;;;5024272;28;20766;-59
2023/08/30 12:02:35;;;;;;;7.03;4.87;;;;;;;;;;5022426;28;20477;-59
2023/08/30 12:05:00;;;;;;;6.35;4.60;;;;;;;;;;5020350;28;20854;-59
2023/08/30 12:07:26;;;;;;;5.20;4.30;;;;;;;;;;5023911;28;20820;-59
2023/08/30 12:09:51;;;;;;;6.47;4.37;;;;;;;;;;5023703;28;20449;-59
2023/08/30 12:12:18;;;;;;;5.20;3.67;;;;;;;;;;5018826;28;22357;-59
2023/08/30 12:14:44;;;;;;;4.30;3.33;;;;;;;;;;5023894;28;20415;-59
2023/08/30 12:17:12;;;;;;;6.67;3.70;;;;;;;;;;5022734;28;20407;-59
2023/08/30 12:19:37;;;;;;;6.57;3.50;;;;;;;;;;5029937;28;20403;-59
2023/08/30 12:22:03;;;;;;;7.40;3.20;;;;;;;;;;5028145;28;20407;-59
2023/08/30 12:24:28;;;;;;;5.60;2.73;;;;;;;;;;5035942;28;20409;-59
2023/08/30 12:26:53;;;;;;;6.07;2.90;;;;;;;;;;5028368;28;20413;-59
2023/08/30 12:29:19;;;;;;;5.95;2.90;;;;;;;;;;5021099;28;21822;-59
2023/08/30 12:31:44;;;;;;;4.80;2.60;;;;;;;;;;5035608;28;21024;-59
2023/08/30 12:34:09;;;;;;;5.70;2.30;;;;;;;;;;5034096;28;20410;-59
2023/08/30 12:36:35;;;;;;;5.43;2.40;;;;;;;;;;5028170;28;20465;-58
2023/08/30 12:39:00;;;;;;;7.00;2.28;;;;;;;;;;5029163;28;20907;-59
2023/08/30 12:41:25;;;;;;;6.77;2.23;;;;;;;;;;5035132;28;20402;-59
2023/08/30 12:43:51;;;;;;;5.70;2.00;;;;;;;;;;5025348;28;20399;-59
2023/08/30 12:46:16;;;;;;;6.57;2.20;;;;;;;;;;5017842;28;20785;-59
2023/08/30 12:48:42;;;;;;;7.23;2.53;;;;;;;;;;5024109;28;20431;-59
2023/08/30 12:51:07;;;;;;;6.93;2.30;;;;;;;;;;5021942;28;20414;-59
2023/08/30 12:53:33;;;;;;;7.03;2.17;;;;;;;;;;5018385;28;20414;-59
2023/08/30 12:55:58;;;;;;;5.30;2.10;;;;;;;;;;5023857;28;20552;-59
2023/08/30 12:58:24;;;;;;;5.87;2.13;;;;;;;;;;5022394;28;20443;-59
2023/08/30 13:00:49;;;;;;;7.37;2.30;;;;;;;;;;5020286;28;20419;-59
2023/08/30 13:03:15;;;;;;;6.90;2.30;;;;;;;;;;5021385;28;20399;-59
2023/08/30 13:05:40;;;;;;;8.17;2.07;;;;;;;;;;5022971;28;20411;-59
2023/08/30 13:08:05;;;;;;;5.30;2.13;;;;;;;;;;5014723;28;20424;-59
2023/08/30 13:10:31;;;;;;;7.70;1.97;;;;;;;;;;5028720;28;20467;-59
2023/08/30 13:12:57;;;;;;;8.50;2.27;;;;;;;;;;5020312;28;20425;-58
2023/08/30 13:15:22;;;;;;;5.65;1.90;;;;;;;;;;5033530;28;20473;-59
2023/08/30 13:17:47;;;;;;;6.50;2.07;;;;;;;;;;5030391;28;20884;-59
2023/08/30 13:20:12;;;;;;;7.63;1.90;;;;;;;;;;5031687;28;20405;-59
2023/08/30 13:22:38;;;;;;;6.97;2.30;;;;;;;;;;5031951;28;20438;-59
2023/08/30 13:25:03;;;;;;;6.30;2.10;;;;;;;;;;5028797;28;20399;-59
2023/08/30 13:27:29;;;;;;;6.47;2.17;;;;;;;;;;5031656;28;20490;-59
2023/08/30 13:29:54;;;;;;;6.30;2.03;;;;;;;;;;5027447;28;20885;-59
2023/08/30 13:32:19;;;;;;;6.53;2.03;;;;;;;;;;5009710;28;20401;-59
2023/08/30 13:34:45;;;;;;;6.47;2.10;;;;;;;;;;4989251;28;20416;-59
2023/08/30 13:37:11;;;;;;;6.60;1.90;;;;;;;;;;4983913;28;20526;-59
2023/08/30 13:39:36;;;;;;;7.47;1.83;;;;;;;;;;4986300;28;20490;-59
2023/08/30 13:42:02;;;;;;;8.73;2.27;;;;;;;;;;4995498;28;20409;-59
2023/08/30 13:44:28;;;;;;;6.63;2.10;;;;;;;;;;4992009;28;20435;-59
2023/08/30 13:46:53;;;;;;;7.00;2.00;;;;;;;;;;4991383;28;20529;-59
2023/08/30 13:49:18;;;;;;;7.40;2.23;;;;;;;;;;4993609;28;20793;-59
2023/08/30 13:51:44;;;;;;;7.07;2.10;;;;;;;;;;4999330;28;20446;-59
2023/08/30 13:54:09;;;;;;;6.35;1.88;;;;;;;;;;4991365;28;20421;-59
2023/08/30 13:56:35;;;;;;;7.43;2.07;;;;;;;;;;4991185;28;20397;-59
2023/08/30 13:59:00;;;;;;;6.53;1.90;;;;;;;;;;4992565;28;20478;-59
2023/08/30 14:01:26;;;;;;;6.97;2.00;;;;;;;;;;4985011;28;20801;-59
2023/08/30 14:03:51;;;;;;;6.90;1.88;;;;;;;;;;4990188;28;20485;-59
2023/08/30 14:06:17;;;;;;;6.70;1.93;;;;;;;;;;4996651;28;20449;-59
2023/08/30 14:08:43;;;;;;;7.37;1.93;;;;;;;;;;4998138;28;20977;-58
2023/08/30 14:11:08;;;;;;;5.95;1.63;;;;;;;;;;4991710;28;20923;-59
2023/08/30 14:13:34;;;;;;;6.20;1.83;;;;;;;;;;4992861;28;20402;-58
2023/08/30 14:15:59;;;;;;;5.60;1.60;;;;;;;;;;4993776;28;20746;-58
2023/08/30 14:18:25;;;;;;;6.40;1.60;;;;;;;;;;4990107;28;20395;-58
2023/08/30 14:20:50;;;;;;;5.90;1.52;;;;;;;;;;4988236;28;20604;-58
2023/08/30 14:23:16;;;;;;;7.07;1.70;;;;;;;;;;4993331;28;20901;-58
2023/08/30 14:25:41;;;;;;;5.57;1.73;;;;;;;;;;4990301;28;20428;-58